Tounan Maru — JD3061 — position and weather

sailwx.info

Track history (hours):
 
Tides and Currents Weather Stations Pressure Air Temp Water Temp Dewpoint Dewpoint Depression Visibility Wind Speed Wind Dir Waves Ship Positions

Tounan Maru

Last reported at 2018-Feb-24 19:30 UTC. Time now 2018-Feb-24 19:37 UTC.
Position N 41°47' E 140°40'.

Length 72 m; draft 4.4 m.

Type: Tanker. MMSI: 431001357.

Date/timePositionNaut miles runAvg speedWind from/ knotsBaromVisibWave heightAir tempDewpointWater temp
2018-Feb-24 19:30N 41°47' E 140°40'0 0.0
2018-Feb-24 19:00N 41°47' E 140°40'0 0.0
2018-Feb-24 18:30N 41°47' E 140°40'0 0.0
2018-Feb-24 18:00N 41°47' E 140°40'0 0.0
2018-Feb-24 17:30N 41°47' E 140°40'0 0.0
2018-Feb-24 17:00N 41°47' E 140°40'0 0.0
2018-Feb-24 16:30N 41°47' E 140°40'0 0.0
2018-Feb-24 16:00N 41°47' E 140°40'0 0.0
2018-Feb-24 15:30N 41°47' E 140°40'0 0.0
2018-Feb-24 14:58N 41°47' E 140°40'0 0.0
2018-Feb-24 14:30N 41°47' E 140°40'0 0.0
2018-Feb-24 14:00N 41°47' E 140°40'0 0.0
2018-Feb-24 13:30N 41°47' E 140°40'0 0.0
2018-Feb-24 13:00N 41°47' E 140°40'0 0.0
2018-Feb-24 12:30N 41°47' E 140°40'0 0.0
2018-Feb-24 12:00N 41°47' E 140°40'0 0.0
2018-Feb-24 11:30N 41°47' E 140°40'0 0.0
2018-Feb-24 11:00N 41°47' E 140°40'0 0.0
2018-Feb-24 10:30N 41°47' E 140°40'0 0.0
2018-Feb-24 10:00N 41°47' E 140°40'0 0.0
2018-Feb-24 09:30N 41°47' E 140°40'0 0.0
2018-Feb-24 09:00N 41°47' E 140°40'3 6.7
2018-Feb-24 08:30N 41°44' E 140°42'611.9
2018-Feb-24 08:00N 41°42' E 140°50'510.6
2018-Feb-24 07:30N 41°41' E 140°57'510.2
2018-Feb-24 07:00N 41°42' E 141°04'612.4
2018-Feb-24 06:30N 41°46' E 141°10'  
2018-Feb-20 18:03N 41°49' E 141°15'112.7
2018-Feb-20 17:59N 41°48' E 141°14'613.1
2018-Feb-20 17:30N 41°44' E 141°08'713.7
2018-Feb-20 17:00N 41°40' E 141°00'714.8
2018-Feb-20 16:30N 41°36' E 140°52'714.5
2018-Feb-20 16:00N 41°32' E 140°44'714.5
2018-Feb-20 15:30N 41°27' E 140°36'1014.1
2018-Feb-20 14:47N 41°21' E 140°26'  
2018-Feb-15 15:30N 41°18' E 140°21'7 8.0
2018-Feb-15 14:39N 41°22' E 140°28'2 9.0
2018-Feb-15 14:28N 41°23' E 140°30'5 9.2
2018-Feb-15 13:59N 41°26' E 140°35'5 9.6
2018-Feb-15 13:30N 41°28' E 140°40'510.2
2018-Feb-15 13:00N 41°31' E 140°45'5 9.9
2018-Feb-15 12:30N 41°34' E 140°51'4 8.2
2018-Feb-15 12:00N 41°36' E 140°55'510.1
2018-Feb-15 11:30N 41°39' E 141°00'510.6
2018-Feb-15 11:00N 41°43' E 141°06'611.4
2018-Feb-15 10:30N 41°46' E 141°12'  
Track history (hours):
 
Tides and Currents Weather Stations Pressure Air Temp Water Temp Dewpoint Dewpoint Depression Visibility Wind Speed Wind Dir Waves Ship Positions

Tounan Maru

Last reported at 2018-Feb-24 19:30 UTC. Time now 2018-Feb-24 19:37 UTC.
Position N 41°47' E 140°40'.

Length 72 m; draft 4.4 m.

Type: Tanker. MMSI: 431001357.

Date/timePositionNaut miles runAvg speedWind from/ knotsBaromVisibWave heightAir tempDewpointWater temp
2018-Feb-24 19:30N 41°47' E 140°40'0 0.0
2018-Feb-24 19:00N 41°47' E 140°40'0 0.0
2018-Feb-24 18:30N 41°47' E 140°40'0 0.0
2018-Feb-24 18:00N 41°47' E 140°40'0 0.0
2018-Feb-24 17:30N 41°47' E 140°40'0 0.0
2018-Feb-24 17:00N 41°47' E 140°40'0 0.0
2018-Feb-24 16:30N 41°47' E 140°40'0 0.0
2018-Feb-24 16:00N 41°47' E 140°40'0 0.0
2018-Feb-24 15:30N 41°47' E 140°40'0 0.0
2018-Feb-24 14:58N 41°47' E 140°40'0 0.0
2018-Feb-24 14:30N 41°47' E 140°40'0 0.0
2018-Feb-24 14:00N 41°47' E 140°40'0 0.0
2018-Feb-24 13:30N 41°47' E 140°40'0 0.0
2018-Feb-24 13:00N 41°47' E 140°40'0 0.0
2018-Feb-24 12:30N 41°47' E 140°40'0 0.0
2018-Feb-24 12:00N 41°47' E 140°40'0 0.0
2018-Feb-24 11:30N 41°47' E 140°40'0 0.0
2018-Feb-24 11:00N 41°47' E 140°40'0 0.0
2018-Feb-24 10:30N 41°47' E 140°40'0 0.0
2018-Feb-24 10:00N 41°47' E 140°40'0 0.0
2018-Feb-24 09:30N 41°47' E 140°40'0 0.0
2018-Feb-24 09:00N 41°47' E 140°40'3 6.7
2018-Feb-24 08:30N 41°44' E 140°42'611.9
2018-Feb-24 08:00N 41°42' E 140°50'510.6
2018-Feb-24 07:30N 41°41' E 140°57'510.2
2018-Feb-24 07:00N 41°42' E 141°04'612.4
2018-Feb-24 06:30N 41°46' E 141°10'  
2018-Feb-20 18:03N 41°49' E 141°15'112.7
2018-Feb-20 17:59N 41°48' E 141°14'613.1
2018-Feb-20 17:30N 41°44' E 141°08'713.7
2018-Feb-20 17:00N 41°40' E 141°00'714.8
2018-Feb-20 16:30N 41°36' E 140°52'714.5
2018-Feb-20 16:00N 41°32' E 140°44'714.5
2018-Feb-20 15:30N 41°27' E 140°36'1014.1
2018-Feb-20 14:47N 41°21' E 140°26'  
2018-Feb-15 15:30N 41°18' E 140°21'7 8.0
2018-Feb-15 14:39N 41°22' E 140°28'2 9.0
2018-Feb-15 14:28N 41°23' E 140°30'5 9.2
2018-Feb-15 13:59N 41°26' E 140°35'5 9.6
2018-Feb-15 13:30N 41°28' E 140°40'510.2
2018-Feb-15 13:00N 41°31' E 140°45'5 9.9
2018-Feb-15 12:30N 41°34' E 140°51'4 8.2
2018-Feb-15 12:00N 41°36' E 140°55'510.1
2018-Feb-15 11:30N 41°39' E 141°00'510.6
2018-Feb-15 11:00N 41°43' E 141°06'611.4
2018-Feb-15 10:30N 41°46' E 141°12'  

Dump ship's entire track history